createdAt,value
2018-09-23T00:02:24.602Z,2.70
2018-09-23T00:04:53.329Z,2.27
2018-09-23T00:07:22.098Z,1.97
2018-09-23T00:09:50.926Z,1.50
2018-09-23T00:12:19.630Z,1.83
2018-09-23T00:14:48.468Z,1.77
2018-09-23T00:17:17.189Z,1.70
2018-09-23T00:19:45.842Z,2.27
2018-09-23T00:22:14.674Z,1.50
2018-09-23T00:24:43.660Z,2.03
2018-09-23T00:27:13.078Z,1.60
2018-09-23T00:29:47.016Z,1.70
2018-09-23T00:32:15.785Z,1.90
2018-09-23T00:34:44.876Z,1.67
2018-09-23T00:37:13.520Z,2.27
2018-09-23T00:39:42.298Z,1.70
2018-09-23T00:42:11.135Z,1.53
2018-09-23T00:44:39.778Z,1.97
2018-09-23T00:47:08.833Z,1.40
2018-09-23T00:49:37.722Z,1.30
2018-09-23T00:52:06.566Z,1.60
2018-09-23T00:54:35.315Z,1.77
2018-09-23T00:57:03.981Z,1.20
2018-09-23T00:59:32.857Z,1.70
2018-09-23T01:02:01.507Z,1.70
2018-09-23T01:04:30.190Z,1.53
2018-09-23T01:07:00.422Z,1.30
2018-09-23T01:09:29.226Z,1.80
2018-09-23T01:11:57.930Z,1.70
2018-09-23T01:14:26.631Z,1.40
2018-09-23T01:16:55.399Z,1.30
2018-09-23T01:19:24.118Z,2.17
2018-09-23T01:21:52.746Z,2.03
2018-09-23T01:24:21.437Z,3.70
2018-09-23T01:26:50.122Z,1.77
2018-09-23T01:29:18.752Z,1.77
2018-09-23T01:31:47.643Z,1.80
2018-09-23T01:34:23.709Z,2.00
2018-09-23T01:36:52.830Z,2.03
2018-09-23T01:39:21.812Z,1.77
2018-09-23T01:41:50.817Z,3.03
2018-09-23T01:44:19.855Z,1.57
2018-09-23T01:46:48.848Z,1.70
2018-09-23T01:49:17.924Z,2.33
2018-09-23T01:51:46.974Z,2.10
2018-09-23T01:54:16.465Z,1.83
2018-09-23T01:56:45.468Z,1.90
2018-09-23T01:59:14.535Z,2.27
2018-09-23T02:01:43.561Z,1.90
2018-09-23T02:04:12.538Z,1.90
2018-09-23T02:06:41.638Z,1.90
2018-09-23T02:09:10.820Z,2.00
2018-09-23T02:11:39.827Z,2.03
2018-09-23T02:14:09.137Z,1.47
2018-09-23T02:16:38.343Z,2.40
2018-09-23T02:19:07.782Z,1.23
2018-09-23T02:21:36.923Z,2.77
2018-09-23T02:24:05.910Z,1.53
2018-09-23T02:26:34.986Z,1.87
2018-09-23T02:29:03.971Z,1.97
2018-09-23T02:31:33.090Z,2.03
2018-09-23T02:34:02.114Z,2.13
2018-09-23T02:36:31.018Z,2.43
2018-09-23T02:38:59.798Z,3.97
2018-09-23T02:41:28.773Z,7.27
2018-09-23T02:43:57.882Z,3.50
2018-09-23T02:46:26.630Z,4.10
2018-09-23T02:48:55.365Z,6.77
2018-09-23T02:51:24.262Z,6.13
2018-09-23T02:53:52.907Z,4.87
2018-09-23T02:56:21.693Z,3.60
2018-09-23T02:58:50.402Z,3.00
2018-09-23T03:01:19.048Z,2.37
2018-09-23T03:03:47.902Z,2.27
2018-09-23T03:06:16.825Z,2.37
2018-09-23T03:08:45.639Z,2.23
2018-09-23T03:11:14.297Z,1.77
2018-09-23T03:13:42.954Z,1.83
2018-09-23T03:16:11.837Z,1.63
2018-09-23T03:18:40.810Z,1.90
2018-09-23T03:21:09.595Z,2.10
2018-09-23T03:23:38.270Z,2.33
2018-09-23T03:26:06.905Z,1.90
2018-09-23T03:28:35.774Z,2.10
2018-09-23T03:31:04.421Z,1.63
2018-09-23T03:33:33.041Z,1.63
2018-09-23T03:36:01.739Z,1.50
2018-09-23T03:38:30.580Z,2.37
2018-09-23T03:40:59.427Z,1.73
2018-09-23T03:43:28.233Z,2.30
2018-09-23T03:45:56.899Z,1.77
2018-09-23T03:48:25.649Z,1.70
2018-09-23T03:50:54.816Z,1.73
2018-09-23T03:53:23.652Z,1.43
2018-09-23T03:55:52.342Z,1.93
2018-09-23T03:58:21.025Z,2.07
2018-09-23T04:00:49.697Z,1.80
2018-09-23T04:03:18.391Z,1.87
2018-09-23T04:05:47.307Z,2.33
2018-09-23T04:08:16.149Z,1.87
2018-09-23T04:10:44.927Z,1.93
2018-09-23T04:13:13.654Z,2.30
2018-09-23T04:15:42.302Z,2.00
2018-09-23T04:18:11.105Z,2.53
2018-09-23T04:20:39.724Z,1.70
2018-09-23T04:23:08.726Z,2.63
2018-09-23T04:25:37.485Z,2.00
2018-09-23T04:28:06.573Z,1.87
2018-09-23T04:30:35.401Z,2.40
2018-09-23T04:33:04.174Z,1.90
2018-09-23T04:35:32.910Z,1.87
2018-09-23T04:38:01.581Z,2.03
2018-09-23T04:40:30.234Z,1.67
2018-09-23T04:42:59.066Z,2.20
2018-09-23T04:45:27.690Z,2.00
2018-09-23T04:47:56.370Z,1.50
2018-09-23T04:50:25.046Z,1.60
2018-09-23T04:52:53.762Z,2.20
2018-09-23T04:55:22.488Z,1.77
2018-09-23T04:57:51.120Z,1.90
2018-09-23T05:00:19.913Z,1.80
2018-09-23T05:02:48.773Z,2.13
2018-09-23T05:05:17.423Z,1.97
2018-09-23T05:07:46.581Z,1.57
2018-09-23T05:10:15.758Z,1.80
2018-09-23T05:12:44.491Z,2.00
2018-09-23T05:15:13.165Z,1.77
2018-09-23T05:17:41.919Z,2.07
2018-09-23T05:20:10.778Z,1.53
2018-09-23T05:22:39.417Z,1.60
2018-09-23T05:25:08.123Z,1.40
2018-09-23T05:27:36.913Z,1.80
2018-09-23T05:30:05.907Z,2.37
2018-09-23T05:32:34.696Z,1.60
2018-09-23T05:35:03.359Z,1.63
2018-09-23T05:37:32.113Z,1.60
2018-09-23T05:40:00.952Z,1.70
2018-09-23T05:42:29.887Z,1.67
2018-09-23T05:44:58.879Z,1.73
2018-09-23T05:47:27.506Z,1.70
2018-09-23T05:49:56.229Z,1.63
2018-09-23T05:52:24.908Z,1.67
2018-09-23T05:54:53.786Z,1.40
2018-09-23T05:57:22.499Z,1.40
2018-09-23T05:59:51.162Z,1.70
2018-09-23T06:02:19.942Z,1.10
2018-09-23T06:04:48.678Z,1.90
2018-09-23T06:07:17.491Z,1.30
2018-09-23T06:09:46.271Z,1.87
2018-09-23T06:12:15.016Z,1.30
2018-09-23T06:14:43.710Z,1.70
2018-09-23T06:17:12.517Z,1.73
2018-09-23T06:19:41.146Z,1.30
2018-09-23T06:22:10.040Z,1.27
2018-09-23T06:24:38.757Z,1.63
2018-09-23T06:27:07.421Z,1.10
2018-09-23T06:29:36.153Z,1.00
2018-09-23T06:32:05.059Z,1.30
2018-09-23T06:34:34.063Z,1.40
2018-09-23T06:37:02.783Z,1.27
2018-09-23T06:39:31.498Z,1.50
2018-09-23T06:42:00.199Z,1.63
2018-09-23T06:44:30.707Z,1.10
2018-09-23T06:47:00.453Z,1.20
2018-09-23T06:49:29.739Z,1.67
2018-09-23T06:51:58.381Z,1.30
2018-09-23T06:54:27.526Z,1.73
2018-09-23T06:56:56.225Z,1.20
2018-09-23T06:59:25.201Z,1.30
2018-09-23T07:01:53.841Z,2.30
2018-09-23T07:04:22.777Z,3.57
2018-09-23T07:06:51.579Z,1.50
2018-09-23T07:09:20.962Z,1.53
2018-09-23T07:11:49.737Z,1.40
2018-09-23T07:14:18.438Z,1.67
2018-09-23T07:16:47.078Z,1.47
2018-09-23T07:19:15.809Z,1.57
2018-09-23T07:21:44.457Z,1.30
2018-09-23T07:24:14.065Z,1.63
2018-09-23T07:26:42.888Z,1.70
2018-09-23T07:29:11.533Z,1.50
2018-09-23T07:31:40.285Z,1.53
2018-09-23T07:34:08.974Z,2.10
2018-09-23T07:36:37.780Z,1.60
2018-09-23T07:39:08.157Z,1.73
2018-09-23T07:41:36.797Z,2.00
2018-09-23T07:44:05.872Z,2.10
2018-09-23T07:46:34.755Z,2.00
2018-09-23T07:49:03.426Z,2.23
2018-09-23T07:51:32.754Z,2.40
2018-09-23T07:54:01.366Z,2.30
2018-09-23T07:56:30.248Z,2.33
2018-09-23T07:58:58.966Z,2.20
2018-09-23T08:01:27.750Z,2.40
2018-09-23T08:03:56.424Z,2.53
2018-09-23T08:06:25.202Z,2.00
2018-09-23T08:08:54.959Z,2.03
2018-09-23T08:11:23.664Z,2.03
2018-09-23T08:13:52.565Z,2.40
2018-09-23T08:16:21.167Z,2.67
2018-09-23T08:18:49.797Z,2.57
2018-09-23T08:21:18.503Z,2.63
2018-09-23T08:23:47.202Z,2.53
2018-09-23T08:26:15.835Z,2.10
2018-09-23T08:28:44.632Z,3.17
2018-09-23T08:31:13.296Z,1.90
2018-09-23T08:33:42.191Z,2.40
2018-09-23T08:36:10.974Z,2.90
2018-09-23T08:38:39.828Z,2.50
2018-09-23T08:41:08.875Z,2.40
2018-09-23T08:43:37.583Z,2.80
2018-09-23T08:46:06.608Z,3.60
2018-09-23T08:48:35.461Z,2.47
2018-09-23T08:51:04.493Z,3.07
2018-09-23T08:53:33.211Z,2.60
2018-09-23T08:56:01.994Z,1.73
2018-09-23T08:58:30.782Z,3.10
2018-09-23T09:00:59.546Z,2.73
2018-09-23T09:03:28.314Z,3.43
2018-09-23T09:05:57.062Z,3.13
2018-09-23T09:08:25.794Z,1.87
2018-09-23T09:10:54.560Z,2.70
2018-09-23T09:13:23.377Z,2.00
2018-09-23T09:15:52.022Z,2.60
2018-09-23T09:18:20.873Z,2.07
2018-09-23T09:20:49.646Z,1.97
2018-09-23T09:23:18.338Z,1.90
2018-09-23T09:25:47.041Z,1.80
2018-09-23T09:28:15.906Z,1.47
2018-09-23T09:30:44.703Z,2.10
2018-09-23T09:33:13.574Z,1.80
2018-09-23T09:35:42.707Z,2.03
2018-09-23T09:38:11.409Z,1.50
2018-09-23T09:40:40.056Z,1.50
2018-09-23T09:43:08.758Z,1.80
2018-09-23T09:45:37.749Z,2.07
2018-09-23T09:48:06.588Z,1.90
2018-09-23T09:50:35.569Z,1.80
2018-09-23T09:53:04.205Z,2.30
2018-09-23T09:55:32.862Z,1.87
2018-09-23T09:58:01.723Z,2.43
2018-09-23T10:00:33.288Z,1.97
2018-09-23T10:03:02.986Z,1.77
2018-09-23T10:05:31.611Z,2.00
2018-09-23T10:08:00.330Z,2.10
2018-09-23T10:10:29.046Z,1.33
2018-09-23T10:12:58.112Z,1.80
2018-09-23T10:15:26.922Z,1.60
2018-09-23T10:17:55.557Z,1.43
2018-09-23T10:20:24.271Z,1.47
2018-09-23T10:22:53.347Z,1.47
2018-09-23T10:25:22.078Z,1.43
2018-09-23T10:27:50.937Z,1.53
2018-09-23T10:30:19.641Z,1.60
2018-09-23T10:32:48.308Z,1.97
2018-09-23T10:35:17.343Z,1.70
2018-09-23T10:37:46.062Z,1.40
2018-09-23T10:40:14.788Z,1.87
2018-09-23T10:42:43.565Z,2.10
2018-09-23T10:45:12.467Z,1.27
2018-09-23T10:47:41.390Z,1.57
2018-09-23T10:50:10.379Z,1.70
2018-09-23T10:52:39.062Z,1.47
2018-09-23T10:55:07.842Z,1.30
2018-09-23T10:57:36.630Z,1.77
2018-09-23T11:00:05.583Z,1.10
2018-09-23T11:02:34.237Z,1.63
2018-09-23T11:05:02.904Z,1.40
2018-09-23T11:07:31.672Z,1.80
2018-09-23T11:10:00.427Z,1.00
2018-09-23T11:12:29.390Z,1.30
2018-09-23T11:14:58.147Z,1.13
2018-09-23T11:17:27.057Z,1.10
2018-09-23T11:19:55.991Z,1.20
2018-09-23T11:22:24.676Z,1.13
2018-09-23T11:24:53.462Z,0.90
2018-09-23T11:27:22.338Z,1.13
2018-09-23T11:29:51.022Z,1.00
2018-09-23T11:32:20.096Z,0.87
2018-09-23T11:34:51.833Z,1.00
2018-09-23T11:37:20.965Z,1.07
2018-09-23T11:39:49.762Z,0.77
2018-09-23T11:42:18.391Z,0.80
2018-09-23T11:44:47.111Z,1.03
2018-09-23T11:47:15.830Z,1.83
2018-09-23T11:49:44.706Z,1.20
2018-09-23T11:52:13.491Z,1.83
2018-09-23T11:54:42.250Z,1.13
2018-09-23T11:57:10.954Z,0.80
2018-09-23T11:59:39.642Z,0.80
2018-09-23T12:02:08.830Z,1.20
2018-09-23T12:04:37.615Z,1.10
2018-09-23T12:07:06.720Z,2.10
2018-09-23T12:09:35.419Z,0.90
2018-09-23T12:12:04.214Z,0.83
2018-09-23T12:14:33.063Z,0.97
2018-09-23T12:17:01.745Z,1.03
2018-09-23T12:19:30.489Z,1.00
2018-09-23T12:21:59.379Z,1.17
2018-09-23T12:24:29.766Z,1.37
2018-09-23T12:26:58.591Z,1.00
2018-09-23T12:29:27.367Z,1.00
2018-09-23T12:31:56.042Z,0.80
2018-09-23T12:34:24.915Z,0.70
2018-09-23T12:36:53.834Z,0.90
2018-09-23T12:39:22.559Z,0.90
2018-09-23T12:41:51.246Z,0.80
2018-09-23T12:44:19.883Z,0.70
2018-09-23T12:46:48.811Z,1.60
2018-09-23T12:49:17.487Z,0.97
2018-09-23T12:51:46.198Z,1.13
2018-09-23T12:54:14.890Z,0.73
2018-09-23T12:56:43.546Z,0.90
2018-09-23T12:59:12.411Z,0.80
2018-09-23T13:01:41.115Z,0.70
2018-09-23T13:04:09.926Z,0.70
2018-09-23T13:06:38.906Z,0.70
2018-09-23T13:09:08.501Z,0.93
2018-09-23T13:11:37.163Z,0.60
2018-09-23T13:14:06.352Z,0.70
2018-09-23T13:16:35.065Z,0.77
2018-09-23T13:19:04.186Z,0.80
2018-09-23T13:21:33.206Z,0.70
2018-09-23T13:24:01.880Z,0.97
2018-09-23T13:26:30.878Z,0.70
2018-09-23T13:28:59.663Z,0.97
2018-09-23T13:31:28.402Z,0.70
2018-09-23T13:33:57.121Z,0.90
2018-09-23T13:36:25.921Z,0.60
2018-09-23T13:38:54.810Z,0.70
2018-09-23T13:41:23.540Z,0.80
2018-09-23T13:43:52.418Z,0.63
2018-09-23T13:46:21.108Z,0.60
2018-09-23T13:48:49.775Z,0.70
2018-09-23T13:51:18.657Z,1.07
2018-09-23T13:53:47.410Z,0.93
2018-09-23T13:56:16.253Z,0.90
2018-09-23T13:58:45.071Z,0.70
2018-09-23T14:01:13.757Z,0.70
2018-09-23T14:03:42.594Z,0.70
2018-09-23T14:06:11.290Z,0.60
2018-09-23T14:08:40.149Z,0.80
2018-09-23T14:11:09.258Z,0.80
2018-09-23T14:13:38.123Z,0.70
2018-09-23T14:16:07.202Z,0.87
2018-09-23T14:18:36.111Z,0.60
2018-09-23T14:21:04.840Z,0.80
2018-09-23T14:23:33.642Z,0.67
2018-09-23T14:26:02.338Z,0.70
2018-09-23T14:28:31.045Z,0.60
2018-09-23T14:30:59.748Z,0.60
2018-09-23T14:33:28.453Z,0.50
2018-09-23T14:35:57.267Z,0.53
2018-09-23T14:38:26.049Z,0.67
2018-09-23T14:40:54.846Z,0.53
2018-09-23T14:43:23.747Z,0.60
2018-09-23T14:45:52.477Z,0.57
2018-09-23T14:48:21.424Z,0.60
2018-09-23T14:50:50.228Z,0.67
2018-09-23T14:53:18.906Z,0.50
2018-09-23T14:55:47.585Z,0.50
2018-09-23T14:58:16.352Z,0.80
2018-09-23T15:00:45.337Z,0.60
2018-09-23T15:03:14.052Z,0.63
2018-09-23T15:05:42.992Z,0.50
2018-09-23T15:08:11.790Z,0.60
2018-09-23T15:10:40.573Z,0.50
2018-09-23T15:13:09.718Z,1.00
2018-09-23T15:15:38.510Z,0.70
2018-09-23T15:18:07.475Z,0.70
2018-09-23T15:20:36.502Z,0.60
2018-09-23T15:23:05.571Z,0.60
2018-09-23T15:25:34.485Z,0.70
2018-09-23T15:28:03.164Z,0.50
2018-09-23T15:30:32.025Z,0.63
2018-09-23T15:33:00.746Z,0.60
2018-09-23T15:35:29.623Z,0.60
2018-09-23T15:37:58.335Z,0.50
2018-09-23T15:40:27.075Z,0.50
2018-09-23T15:42:55.779Z,0.60
2018-09-23T15:45:24.498Z,0.80
2018-09-23T15:47:53.226Z,0.50
2018-09-23T15:50:21.920Z,0.50
2018-09-23T15:52:50.693Z,0.67
2018-09-23T15:55:19.515Z,0.50
2018-09-23T15:57:48.384Z,0.70
2018-09-23T16:00:17.103Z,1.10
2018-09-23T16:02:45.759Z,0.67
2018-09-23T16:05:14.454Z,0.70
2018-09-23T16:07:43.175Z,0.80
2018-09-23T16:10:11.990Z,0.97
2018-09-23T16:12:40.840Z,0.70
2018-09-23T16:15:09.505Z,0.80
2018-09-23T16:17:38.334Z,0.80
2018-09-23T16:20:07.210Z,0.90
2018-09-23T16:22:35.981Z,0.87
2018-09-23T16:25:04.714Z,1.00
2018-09-23T16:27:33.445Z,0.87
2018-09-23T16:30:02.308Z,0.90
2018-09-23T16:32:31.090Z,1.17
2018-09-23T16:34:59.738Z,2.43
2018-09-23T16:37:28.419Z,0.90
2018-09-23T16:39:57.057Z,0.80
2018-09-23T16:42:25.742Z,1.23
2018-09-23T16:44:54.590Z,1.23
2018-09-23T16:47:23.578Z,1.70
2018-09-23T16:49:52.295Z,1.73
2018-09-23T16:52:21.055Z,1.20
2018-09-23T17:47:47.075Z,1.73
2018-09-23T17:51:35.886Z,1.10
2018-09-23T18:39:53.503Z,1.37
2018-09-23T18:42:27.857Z,1.10
2018-09-23T18:44:56.709Z,1.10
2018-09-23T18:51:54.286Z,1.20
2018-09-23T18:54:29.827Z,0.87
2018-09-23T18:57:00.766Z,1.00
2018-09-23T19:08:57.485Z,1.00
2018-09-23T19:11:58.846Z,0.77
2018-09-23T19:14:27.609Z,0.90
2018-09-23T19:18:41.390Z,0.97
2018-09-23T19:21:13.158Z,0.60
